This is the latest recevied weather packets stored in our database for station/object TG9SRP-22. If no packets are shown the sender has not sent any weather packets the latest 10 day(s).
| Time | Temp. | Humidity | Pressure | Rain* | Wind** | Luminosity | Snow |
|---|---|---|---|---|---|---|---|
| 1777814240 | 17.78° C | 82% | 1016 hPa | 0 mm | - | - | - |
| 1777813640 | 14.44° C | 87% | 1016 hPa | 0 mm | - | - | - |
| 1777813039 | 15.56° C | 86% | 1016 hPa | 0 mm | - | - | - |
| 1777812439 | 16.11° C | 86% | 1016 hPa | 0 mm | - | - | - |
| 1777811838 | 16.11° C | 86% | 1016 hPa | 0 mm | - | - | - |
| 1777811238 | 13.33° C | 87% | 1016 hPa | 0 mm | - | - | - |
| 1777810637 | 13.33° C | 87% | 1016 hPa | 0 mm | - | - | - |
| 1777810036 | 14.44° C | 85% | 1016 hPa | 0 mm | - | - | - |
| 1777809436 | 15.56° C | 83% | 1016 hPa | 0 mm | - | - | - |
| 1777808835 | 16.67° C | 80% | 1016 hPa | 0 mm | - | - | - |
| 1777808235 | 17.78° C | 77% | 1016 hPa | 0 mm | - | - | - |
| 1777807634 | 17.78° C | 77% | 1016 hPa | 0 mm | - | - | - |
| 1777807034 | 12.22° C | 90% | 1016 hPa | 0 mm | - | - | - |
| 1777806433 | 12.22° C | 90% | 1016 hPa | 0 mm | - | - | - |
| 1777805833 | 13.33° C | 90% | 1016 hPa | 0 mm | - | - | - |
| 1777805232 | 13.89° C | 89% | 1016 hPa | 0 mm | - | - | - |
| 1777804631 | 15° C | 87% | 1016 hPa | 0 mm | - | - | - |
| 1777804031 | 16.11° C | 85% | 1014 hPa | 0 mm | - | - | - |
| 1777803430 | 17.22° C | 83% | 1015 hPa | 0 mm | - | - | - |
| 1777802830 | 17.78° C | 83% | 1015 hPa | 0 mm | - | - | - |
| 1777802229 | 12.78° C | 94% | 1015 hPa | 0 mm | - | - | - |
| 1777801628 | 13.89° C | 93% | 1015 hPa | 0 mm | - | - | - |
| 1777801028 | 15° C | 92% | 1015 hPa | 0 mm | - | - | - |
| 1777800427 | 16.11° C | 91% | 1015 hPa | 0 mm | - | - | - |
| 1777799827 | 17.22° C | 89% | 1015 hPa | 0 mm | - | - | - |
* Rain latest hour (hover to see other rain measurements)
** Current wind speed in m/s (hover to see current wind gust speed)